Time;durP1;ratioP1;P1;durP2;ratioP2;P2;SDS_P1;SDS_P2;PMS_P1;PMS_P2;Temp;Humidity;BMP_temperature;BMP_pressure;BME280_temperature;BME280_humidity;BME280_pressure;Samples;Min_cycle;Max_cycle;Signal;HPM_P1;HPM_P2
2022/06/26 06:15:22;;;;;;;5.30;4.28;;;19.90;99.90;;;;;;5090874;27;20537;-76
2022/06/26 06:17:49;;;;;;;3.78;3.47;;;17.70;99.90;;;;;;5090927;28;20183;-76
2022/06/26 06:20:21;;;;;;;3.60;3.40;;;17.70;99.90;;;;;;5089634;28;20225;-76
2022/06/26 06:22:59;;;;;;;3.80;3.50;;;17.60;99.90;;;;;;5090860;28;20171;-76
2022/06/26 06:25:25;;;;;;;7.13;4.18;;;17.60;99.90;;;;;;5090750;28;20653;-77
2022/06/26 06:27:51;;;;;;;3.17;2.97;;;17.70;99.90;;;;;;5090679;28;20198;-77
2022/06/26 06:30:17;;;;;;;2.80;2.60;;;17.70;99.90;;;;;;5089402;28;20195;-77
2022/06/26 06:32:43;;;;;;;2.80;2.60;;;17.60;99.90;;;;;;5090525;28;20175;-77
2022/06/26 06:35:11;;;;;;;3.72;2.90;;;17.60;99.90;;;;;;5090501;28;20187;-76
2022/06/26 06:37:36;;;;;;;3.50;3.20;;;17.60;99.90;;;;;;5090505;28;20160;-77
2022/06/26 06:40:02;;;;;;;3.63;2.80;;;17.70;99.90;;;;;;5090472;28;20190;-76
2022/06/26 06:42:28;;;;;;;4.97;2.97;;;17.70;99.90;;;;;;5089142;28;20221;-77
2022/06/26 06:44:53;;;;;;;3.10;2.90;;;17.60;99.90;;;;;;5090414;28;20747;-77
2022/06/26 06:47:19;;;;;;;3.22;2.97;;;17.50;99.90;;;;;;5090302;28;20648;-77
2022/06/26 06:49:44;;;;;;;5.03;3.00;;;17.80;99.90;;;;;;5090322;28;20183;-78
2022/06/26 06:52:10;;;;;;;4.03;3.22;;;17.60;99.90;;;;;;5090229;28;20194;-77
2022/06/26 06:54:36;;;;;;;3.53;3.20;;;17.60;99.90;;;;;;5090153;28;20292;-77
2022/06/26 06:57:02;;;;;;;2.75;2.55;;;17.60;99.90;;;;;;5088958;28;20171;-77
2022/06/26 06:59:28;;;;;;;2.60;2.40;;;17.50;99.90;;;;;;5090136;28;20160;-77
2022/06/26 07:01:53;;;;;;;3.15;2.30;;;17.50;99.90;;;;;;5090057;28;20237;-81
2022/06/26 07:04:19;;;;;;;1.98;1.95;;;17.60;99.90;;;;;;5088766;28;20172;-80
2022/06/26 07:06:45;;;;;;;2.28;2.17;;;17.50;99.90;;;;;;5088742;28;20176;-80
2022/06/26 07:09:11;;;;;;;3.28;2.03;;;17.50;99.90;;;;;;5089966;28;20195;-81
2022/06/26 07:11:37;;;;;;;2.47;2.08;;;17.40;99.90;;;;;;5089897;28;20195;-80
2022/06/26 07:14:03;;;;;;;2.50;2.40;;;17.50;99.90;;;;;;5089489;28;20258;-81
2022/06/26 07:16:28;;;;;;;2.42;2.33;;;17.70;99.90;;;;;;5088428;28;20620;-81
2022/06/26 07:18:54;;;;;;;3.03;2.47;;;17.70;99.90;;;;;;5089698;28;20176;-80
2022/06/26 07:21:20;;;;;;;4.03;2.83;;;17.80;99.90;;;;;;5088346;28;20171;-81
2022/06/26 07:23:45;;;;;;;3.15;2.55;;;17.80;99.90;;;;;;5089575;28;20221;-80
2022/06/26 07:26:11;;;;;;;2.67;2.15;;;17.80;99.90;;;;;;5077980;28;20207;-80
2022/06/26 07:28:37;;;;;;;1.95;1.85;;;17.70;99.90;;;;;;5076018;28;20180;-81
2022/06/26 07:31:02;;;;;;;2.20;2.10;;;18.10;99.90;;;;;;5075919;28;20164;-81
2022/06/26 07:36:13;;;;;;;2.00;1.90;;;17.90;99.90;;;;;;5076214;28;20636;-81
2022/06/26 07:38:39;;;;;;;2.00;1.90;;;18.20;99.90;;;;;;5075827;28;20265;-80
2022/06/26 07:41:04;;;;;;;3.03;1.88;;;18.10;99.90;;;;;;5075775;28;20624;-81
2022/06/26 07:43:30;;;;;;;1.67;1.63;;;18.20;99.90;;;;;;5075773;28;20169;-77
2022/06/26 07:45:56;;;;;;;2.42;2.33;;;18.30;99.90;;;;;;5074395;28;20172;-77
2022/06/26 07:48:22;;;;;;;1.90;1.80;;;18.20;99.90;;;;;;5075611;28;20217;-77
2022/06/26 07:50:47;;;;;;;3.92;2.30;;;18.40;99.90;;;;;;5075564;28;20184;-77
2022/06/26 07:53:13;;;;;;;2.13;2.03;;;18.30;99.90;;;;;;5075552;28;20205;-77
2022/06/26 07:55:39;;;;;;;2.20;2.00;;;18.40;99.90;;;;;;5075507;28;20660;-77
2022/06/26 07:58:04;;;;;;;3.13;2.00;;;18.50;99.90;;;;;;5075372;28;20195;-77
2022/06/26 08:00:30;;;;;;;2.30;2.10;;;18.60;99.90;;;;;;5075372;28;20624;-77
2022/06/26 08:03:04;;;;;;;2.17;2.08;;;18.90;99.90;;;;;;5075331;28;20167;-77
2022/06/26 08:05:29;;;;;;;1.90;1.80;;;18.90;99.90;;;;;;5075337;28;20167;-77
2022/06/26 08:07:55;;;;;;;2.00;1.90;;;19.20;99.90;;;;;;5073986;28;20178;-77
2022/06/26 08:10:20;;;;;;;1.70;1.70;;;19.30;99.90;;;;;;5075262;28;20553;-77
2022/06/26 08:12:46;;;;;;;1.98;1.88;;;19.20;99.90;;;;;;5073910;28;20624;-77
2022/06/26 08:15:11;;;;;;;1.75;1.65;;;19.20;99.90;;;;;;5073627;28;20223;-77
2022/06/26 08:17:37;;;;;;;1.77;1.67;;;19.20;99.90;;;;;;5075169;28;20164;-76
2022/06/26 08:20:03;;;;;;;1.88;1.77;;;19.10;99.90;;;;;;5075037;28;20297;-77
2022/06/26 08:22:29;;;;;;;3.08;2.17;;;19.00;99.90;;;;;;5074967;28;20167;-77
2022/06/26 08:24:55;;;;;;;2.28;2.13;;;18.90;99.90;;;;;;5074935;28;20179;-77
2022/06/26 08:27:20;;;;;;;2.20;2.00;;;19.00;99.90;;;;;;5074853;28;20622;-77
2022/06/26 08:29:46;;;;;;;2.42;2.22;;;18.90;99.90;;;;;;5074859;28;20171;-77
2022/06/26 08:32:11;;;;;;;2.28;2.05;;;18.80;99.90;;;;;;5074819;28;20179;-77
2022/06/26 08:34:37;;;;;;;2.67;2.45;;;18.70;99.90;;;;;;5074636;28;20195;-77
2022/06/26 08:37:03;;;;;;;2.30;2.20;;;18.70;99.90;;;;;;5072474;28;20179;-77
2022/06/26 08:39:28;;;;;;;3.30;2.63;;;18.50;99.90;;;;;;5074645;28;20521;-77
2022/06/26 08:41:54;;;;;;;2.28;2.10;;;18.60;99.90;;;;;;5074554;28;20172;-77
2022/06/26 08:44:23;;;;;;;2.30;2.10;;;18.70;99.90;;;;;;5074553;28;20164;-77
2022/06/26 08:46:48;;;;;;;2.20;2.03;;;18.70;99.90;;;;;;5074433;28;20575;-77
2022/06/26 08:49:17;;;;;;;3.80;2.50;;;18.70;99.90;;;;;;5073210;28;20172;-77
2022/06/26 08:51:45;;;;;;;2.13;2.03;;;18.70;99.90;;;;;;5074313;28;20187;-77
2022/06/26 08:54:13;;;;;;;2.67;2.10;;;18.70;99.90;;;;;;5074166;28;20237;-76
2022/06/26 08:56:41;;;;;;;2.90;2.35;;;18.80;99.90;;;;;;5074228;28;20186;-77
2022/06/26 08:59:11;;;;;;;2.40;2.20;;;18.80;99.90;;;;;;5072782;28;20707;-77
2022/06/26 09:01:38;;;;;;;3.38;3.08;;;18.70;99.90;;;;;;5072930;28;20164;-77
2022/06/26 09:04:04;;;;;;;2.20;2.10;;;18.60;99.90;;;;;;5074340;28;20171;-77
2022/06/26 09:06:32;;;;;;;2.40;2.30;;;18.60;99.90;;;;;;5073931;28;20198;-77
2022/06/26 09:08:58;;;;;;;3.13;2.83;;;18.70;99.90;;;;;;5073967;28;20179;-77
2022/06/26 09:11:23;;;;;;;2.65;2.45;;;18.80;99.90;;;;;;5073966;28;20167;-77
2022/06/26 09:13:52;;;;;;;2.75;2.65;;;18.70;99.90;;;;;;5073642;28;20265;-77
2022/06/26 09:16:29;;;;;;;2.35;2.25;;;18.60;99.90;;;;;;5073863;28;20207;-77
2022/06/26 09:18:55;;;;;;;3.90;2.33;;;18.60;99.90;;;;;;5073862;28;20172;-77
2022/06/26 09:21:26;;;;;;;3.22;2.92;;;18.60;99.90;;;;;;5073730;28;20210;-77
2022/06/26 09:23:53;;;;;;;3.08;2.78;;;18.60;99.90;;;;;;5072565;28;20176;-77
2022/06/26 09:26:19;;;;;;;3.53;3.10;;;18.60;99.90;;;;;;5072490;28;20168;-77
2022/06/26 09:28:44;;;;;;;5.38;3.90;;;18.70;99.90;;;;;;5072390;28;20600;-77
2022/06/26 09:31:12;;;;;;;3.33;3.13;;;18.90;99.90;;;;;;5073534;28;20200;-77
2022/06/26 09:33:39;;;;;;;2.92;2.72;;;19.00;99.90;;;;;;5072198;28;20195;-77
2022/06/26 09:36:05;;;;;;;3.97;3.20;;;19.00;99.90;;;;;;5073577;28;20224;-77
2022/06/26 09:38:35;;;;;;;2.85;2.63;;;19.10;99.90;;;;;;5073584;28;20172;-77
2022/06/26 09:41:03;;;;;;;3.28;3.08;;;19.30;99.90;;;;;;5073585;28;20164;-77
2022/06/26 09:43:42;;;;;;;5.07;3.25;;;19.40;99.90;;;;;;5073455;28;20207;-77
2022/06/26 09:46:10;;;;;;;5.00;3.05;;;19.60;99.90;;;;;;5073512;28;20224;-77
2022/06/26 09:48:37;;;;;;;3.00;2.75;;;19.60;99.90;;;;;;5073118;28;20232;-77
2022/06/26 09:51:04;;;;;;;6.82;2.90;;;19.60;99.90;;;;;;5073268;28;20191;-77
2022/06/26 09:53:30;;;;;;;2.90;2.70;;;19.70;99.90;;;;;;5073263;28;20278;-77
2022/06/26 09:55:58;;;;;;;3.75;3.25;;;19.70;99.90;;;;;;5073259;28;20450;-77
2022/06/26 09:58:25;;;;;;;2.78;2.58;;;19.80;99.90;;;;;;5073285;28;20533;-77
2022/06/26 10:06:27;;;;;;;2.92;2.72;;;19.90;99.90;;;;;;5073302;28;20529;-77
2022/06/26 10:09:05;;;;;;;5.10;2.63;;;20.10;99.90;;;;;;5073252;28;20163;-77
2022/06/26 10:11:33;;;;;;;4.15;3.55;;;20.30;99.90;;;;;;5073147;28;20259;-77
2022/06/26 10:14:38;;;;;;;3.35;3.00;;;20.40;99.90;;;;;;5072874;28;20266;-77
2022/06/26 10:17:21;;;;;;;3.17;2.97;;;20.70;99.90;;;;;;5073120;28;20213;-77
2022/06/26 10:20:00;;;;;;;4.03;3.72;;;20.90;99.90;;;;;;5072930;28;20195;-77
2022/06/26 10:22:26;;;;;;;4.68;3.53;;;21.20;99.90;;;;;;5072975;28;20210;-77
2022/06/26 10:24:55;;;;;;;4.93;3.70;;;21.20;99.90;;;;;;5073074;28;20172;-77
2022/06/26 10:27:32;;;;;;;3.50;3.30;;;20.90;99.90;;;;;;5072957;28;20164;-77
2022/06/26 10:30:10;;;;;;;3.60;3.40;;;21.20;99.90;;;;;;5072709;28;20254;-77
2022/06/26 10:32:36;;;;;;;3.53;3.22;;;21.30;99.90;;;;;;5072900;28;20592;-78
2022/06/26 10:35:03;;;;;;;4.63;3.50;;;21.40;99.90;;;;;;5072922;28;20289;-78
2022/06/26 10:37:42;;;;;;;3.72;3.38;;;21.50;99.90;;;;;;5073043;28;20250;-78
2022/06/26 10:43:13;;;;;;;4.13;2.72;;;21.30;99.90;;;;;;5072833;28;20191;-78
2022/06/26 10:45:40;;;;;;;3.55;2.88;;;21.30;99.90;;;;;;5072794;28;20168;-77
2022/06/26 10:48:18;;;;;;;3.30;3.10;;;21.40;99.90;;;;;;5072852;28;20700;-77
2022/06/26 10:50:45;;;;;;;3.30;3.10;;;21.50;99.90;;;;;;5071420;28;20195;-78
2022/06/26 10:53:14;;;;;;;3.58;3.35;;;21.70;99.90;;;;;;5072696;28;20686;-78
2022/06/26 10:55:42;;;;;;;4.35;3.95;;;21.70;99.90;;;;;;5072745;28;20246;-77
2022/06/26 10:58:08;;;;;;;4.18;3.20;;;21.70;99.90;;;;;;5072689;28;20164;-77
2022/06/26 11:00:34;;;;;;;4.28;3.63;;;21.60;99.90;;;;;;5073813;28;20168;-78
2022/06/26 11:03:00;;;;;;;3.97;3.40;;;21.60;99.90;;;;;;5076427;28;20604;-78
2022/06/26 11:05:28;;;;;;;3.50;3.20;;;21.60;99.90;;;;;;5074986;28;20226;-78
2022/06/26 11:07:53;;;;;;;3.83;3.53;;;21.90;99.90;;;;;;5076347;28;20324;-77
2022/06/26 11:10:27;;;;;;;4.25;3.85;;;22.00;99.90;;;;;;5076484;28;20199;-78
2022/06/26 11:12:53;;;;;;;4.35;4.03;;;22.30;99.90;;;;;;5076268;28;20164;-78
2022/06/26 11:15:34;;;;;;;3.90;3.70;;;22.30;99.90;;;;;;5076304;28;20677;-78
2022/06/26 11:18:03;;;;;;;3.63;3.35;;;22.50;99.90;;;;;;5076195;28;20164;-78
2022/06/26 11:20:49;;;;;;;2.70;2.60;;;22.70;99.90;;;;;;5074839;28;20174;-78
2022/06/26 11:23:35;;;;;;;4.45;3.08;;;22.60;99.90;;;;;;5076102;28;20167;-78
2022/06/26 11:26:02;;;;;;;2.72;2.63;;;22.50;99.90;;;;;;5076127;28;20156;-78
2022/06/26 11:28:29;;;;;;;2.47;2.30;;;22.20;99.90;;;;;;5075934;28;20187;-78
2022/06/26 11:30:56;;;;;;;3.00;2.38;;;22.00;99.90;;;;;;5075877;28;20164;-78
2022/06/26 11:33:24;;;;;;;2.50;2.40;;;21.80;99.90;;;;;;5074555;28;20526;-78
2022/06/26 11:35:50;;;;;;;2.70;2.50;;;21.70;99.90;;;;;;5075756;28;20561;-78
2022/06/26 11:38:16;;;;;;;3.53;2.28;;;21.70;99.90;;;;;;5074564;28;20180;-78
2022/06/26 11:40:44;;;;;;;2.45;2.35;;;21.90;99.90;;;;;;5075854;28;20160;-78
2022/06/26 11:43:11;;;;;;;2.33;2.00;;;22.00;99.90;;;;;;5075742;28;20172;-78
2022/06/26 11:45:39;;;;;;;2.40;2.10;;;22.10;99.90;;;;;;5074410;28;20648;-78
2022/06/26 11:48:16;;;;;;;2.10;2.00;;;22.10;99.90;;;;;;5075737;28;20168;-78
2022/06/26 11:50:43;;;;;;;3.40;2.35;;;22.00;99.90;;;;;;5074193;28;20238;-77
2022/06/26 11:53:09;;;;;;;2.58;2.45;;;22.00;99.90;;;;;;5075432;28;20163;-78
2022/06/26 11:55:45;;;;;;;3.35;3.05;;;22.10;99.90;;;;;;5074139;28;20183;-78
2022/06/26 11:58:11;;;;;;;2.40;2.30;;;21.90;99.90;;;;;;5075515;28;20200;-78
2022/06/26 12:00:37;;;;;;;3.60;2.20;;;21.80;99.90;;;;;;5075347;28;20159;-78
2022/06/26 12:03:03;;;;;;;2.53;2.33;;;21.70;99.90;;;;;;5075359;28;20592;-78
2022/06/26 12:05:30;;;;;;;2.22;2.13;;;21.60;99.90;;;;;;5075301;28;20203;-78
2022/06/26 12:07:57;;;;;;;2.35;2.25;;;21.50;99.90;;;;;;5075219;28;20164;-78
2022/06/26 12:10:31;;;;;;;2.50;2.40;;;21.50;99.90;;;;;;5075211;28;20160;-78
2022/06/26 12:12:58;;;;;;;2.55;2.45;;;21.40;99.90;;;;;;5073644;28;20167;-78
2022/06/26 12:15:25;;;;;;;2.63;2.42;;;21.30;99.90;;;;;;5075110;28;20196;-77
2022/06/26 12:17:59;;;;;;;4.68;2.38;;;21.20;99.90;;;;;;5075031;28;20171;-78
2022/06/26 12:20:24;;;;;;;3.58;2.65;;;21.10;99.90;;;;;;5074905;28;20168;-78
2022/06/26 12:22:53;;;;;;;3.72;2.55;;;21.00;99.90;;;;;;5074827;28;20160;-78
2022/06/26 12:25:26;;;;;;;3.88;2.15;;;21.10;99.90;;;;;;5074967;28;20632;-78
2022/06/26 12:27:52;;;;;;;3.92;2.60;;;21.00;99.90;;;;;;5073572;28;20172;-78
2022/06/26 12:30:20;;;;;;;4.05;2.70;;;20.90;99.90;;;;;;5073474;28;20226;-78
2022/06/26 12:32:46;;;;;;;2.60;2.50;;;20.80;99.90;;;;;;5074779;28;20202;-77
2022/06/26 12:35:11;;;;;;;3.03;2.83;;;20.70;99.90;;;;;;5074652;28;20226;-78
2022/06/26 12:37:37;;;;;;;3.47;2.88;;;20.70;99.90;;;;;;5074725;28;20643;-78
2022/06/26 12:40:04;;;;;;;2.83;2.63;;;20.60;99.90;;;;;;5074739;28;20222;-78
2022/06/26 12:42:30;;;;;;;3.03;2.75;;;20.60;99.90;;;;;;5074592;28;20190;-78
2022/06/26 12:44:55;;;;;;;3.85;2.70;;;20.60;99.90;;;;;;5074467;28;20251;-78
2022/06/26 12:47:21;;;;;;;3.60;2.45;;;20.60;99.90;;;;;;5074497;28;20266;-78
2022/06/26 12:49:46;;;;;;;2.95;2.80;;;20.60;99.90;;;;;;5074395;28;20172;-78
2022/06/26 12:52:12;;;;;;;2.90;2.70;;;20.50;99.90;;;;;;5073115;28;20536;-78
2022/06/26 12:54:38;;;;;;;2.97;2.47;;;20.50;99.90;;;;;;5074302;28;20596;-78
2022/06/26 12:57:03;;;;;;;2.90;2.70;;;20.40;99.90;;;;;;5073013;28;20176;-78
2022/06/26 12:59:29;;;;;;;3.40;2.60;;;20.30;99.90;;;;;;5074224;28;20255;-78
2022/06/26 13:01:55;;;;;;;3.70;2.92;;;20.30;99.90;;;;;;5074080;28;20338;-78
2022/06/26 13:04:20;;;;;;;5.55;2.80;;;20.30;99.90;;;;;;5074021;28;20176;-78
2022/06/26 13:06:46;;;;;;;4.43;3.80;;;20.20;99.90;;;;;;5074142;28;20662;-78
2022/06/26 13:09:12;;;;;;;4.85;4.10;;;20.30;99.90;;;;;;5074022;28;20172;-77
2022/06/26 13:11:37;;;;;;;3.05;2.85;;;20.20;99.90;;;;;;5073890;28;20164;-78
2022/06/26 13:14:03;;;;;;;3.03;2.83;;;20.20;99.90;;;;;;5072336;28;20750;-78
2022/06/26 13:16:29;;;;;;;3.40;3.10;;;20.10;99.90;;;;;;5073872;28;20164;-78
2022/06/26 13:18:55;;;;;;;3.10;2.90;;;20.30;99.90;;;;;;5072415;28;20178;-77
2022/06/26 13:21:21;;;;;;;4.03;3.30;;;20.20;99.90;;;;;;5073763;28;20164;-78
2022/06/26 13:23:47;;;;;;;3.42;3.08;;;20.40;99.90;;;;;;5073189;28;20297;-78
2022/06/26 13:26:12;;;;;;;3.70;3.00;;;20.40;99.90;;;;;;5072412;28;20640;-77
2022/06/26 13:28:38;;;;;;;4.10;3.83;;;20.40;99.90;;;;;;5073642;28;20653;-77
2022/06/26 13:31:04;;;;;;;4.72;3.15;;;20.40;99.90;;;;;;5073610;28;20661;-77
2022/06/26 13:33:30;;;;;;;3.03;2.83;;;20.40;99.90;;;;;;5072030;28;20203;-77
2022/06/26 13:35:56;;;;;;;3.63;3.28;;;20.30;99.90;;;;;;5073446;28;20569;-77
2022/06/26 13:38:21;;;;;;;4.55;3.30;;;20.40;99.90;;;;;;5073457;28;20669;-77
2022/06/26 13:40:47;;;;;;;3.42;3.08;;;20.40;99.90;;;;;;5073437;28;20464;-78
2022/06/26 13:43:13;;;;;;;3.17;2.97;;;20.50;99.90;;;;;;5072134;28;20171;-78
2022/06/26 13:45:38;;;;;;;3.35;2.67;;;20.60;99.90;;;;;;5073318;28;20171;-78
2022/06/26 13:48:04;;;;;;;3.65;3.45;;;20.70;99.90;;;;;;5073293;28;20183;-78
2022/06/26 13:50:30;;;;;;;3.13;2.90;;;20.80;99.90;;;;;;5073253;28;20688;-77
2022/06/26 13:52:56;;;;;;;3.03;2.72;;;20.90;99.90;;;;;;5073213;28;20160;-78
2022/06/26 13:55:21;;;;;;;3.28;3.08;;;21.00;99.90;;;;;;5073309;28;20295;-78
2022/06/26 13:57:47;;;;;;;2.70;2.50;;;21.10;99.90;;;;;;5073254;28;20210;-78
2022/06/26 14:00:13;;;;;;;3.08;2.78;;;21.10;99.90;;;;;;5073259;28;20168;-78
2022/06/26 14:02:39;;;;;;;3.20;3.00;;;21.20;99.90;;;;;;5073074;28;20255;-78
2022/06/26 14:05:05;;;;;;;3.22;2.92;;;21.20;99.90;;;;;;5073232;28;20585;-78
2022/06/26 14:07:31;;;;;;;3.38;3.17;;;21.10;99.90;;;;;;5073175;28;20203;-78
2022/06/26 14:09:56;;;;;;;3.08;2.80;;;20.90;99.90;;;;;;5073150;28;20191;-78
2022/06/26 14:12:22;;;;;;;3.33;3.13;;;20.80;99.90;;;;;;5073164;28;20165;-78
2022/06/26 14:14:47;;;;;;;3.20;2.95;;;20.60;99.90;;;;;;5071547;28;20688;-78
2022/06/26 14:17:13;;;;;;;3.25;3.15;;;20.40;99.90;;;;;;5073044;28;20202;-77
2022/06/26 14:19:38;;;;;;;3.33;2.78;;;20.40;99.90;;;;;;5072925;28;20180;-77
2022/06/26 14:27:32;;;;;;;3.00;2.80;;;20.00;99.90;;;;;;5073132;28;20183;-77
2022/06/26 14:29:58;;;;;;;3.42;3.20;;;20.00;99.90;;;;;;5072908;28;20172;-77
2022/06/26 14:32:23;;;;;;;3.47;3.17;;;19.90;99.90;;;;;;5072881;28;20171;-77
2022/06/26 14:34:49;;;;;;;3.83;3.50;;;19.90;99.90;;;;;;5072763;28;20203;-77
2022/06/26 14:37:14;;;;;;;3.40;3.10;;;19.90;99.90;;;;;;5076844;28;20172;-77
2022/06/26 14:39:40;;;;;;;3.50;3.30;;;19.80;99.90;;;;;;5076885;28;20526;-77
2022/06/26 14:42:06;;;;;;;3.53;3.33;;;19.70;99.90;;;;;;5076675;28;20172;-77
2022/06/26 14:44:31;;;;;;;3.50;3.20;;;19.70;99.90;;;;;;5076791;28;20219;-77
2022/06/26 14:46:57;;;;;;;4.28;3.88;;;19.70;99.90;;;;;;5076567;28;20172;-77
2022/06/26 14:49:22;;;;;;;4.18;3.88;;;19.60;99.90;;;;;;5076560;28;20207;-77
2022/06/26 14:51:49;;;;;;;4.95;4.53;;;19.50;99.90;;;;;;5076364;28;20245;-77
2022/06/26 14:54:15;;;;;;;7.22;4.72;;;19.60;99.90;;;;;;5076391;28;20183;-76
2022/06/26 14:56:41;;;;;;;5.70;3.63;;;19.50;99.90;;;;;;5076264;28;20168;-76
2022/06/26 14:59:07;;;;;;;4.13;3.75;;;19.40;99.90;;;;;;5076332;28;20250;-76
2022/06/26 15:01:32;;;;;;;4.55;4.20;;;19.30;99.90;;;;;;5075087;28;20652;-77
2022/06/26 15:04:00;;;;;;;4.03;3.83;;;19.30;99.90;;;;;;5076281;28;20180;-77
2022/06/26 15:06:26;;;;;;;3.63;3.42;;;19.20;99.90;;;;;;5076347;28;20636;-76
2022/06/26 15:08:51;;;;;;;3.92;3.63;;;19.40;99.90;;;;;;5076078;28;20224;-76
2022/06/26 15:11:17;;;;;;;3.90;3.60;;;19.40;99.90;;;;;;5075954;28;20254;-77
2022/06/26 15:13:42;;;;;;;5.03;4.70;;;19.40;99.90;;;;;;5076193;28;20215;-77
2022/06/26 15:16:08;;;;;;;4.05;3.47;;;19.40;99.90;;;;;;5076091;28;20533;-77
2022/06/26 15:18:33;;;;;;;3.65;3.35;;;19.30;99.90;;;;;;5076050;28;20168;-77
2022/06/26 15:21:00;;;;;;;6.57;3.20;;;19.40;99.90;;;;;;5074778;28;20182;-76
2022/06/26 15:23:26;;;;;;;3.20;3.00;;;19.30;99.90;;;;;;5076014;28;20162;-77
2022/06/26 15:25:51;;;;;;;4.47;3.28;;;19.30;99.90;;;;;;5075756;28;20495;-76
2022/06/26 15:28:17;;;;;;;3.67;3.38;;;19.40;99.90;;;;;;5074515;28;20164;-76
2022/06/26 15:30:43;;;;;;;3.92;3.63;;;19.50;99.90;;;;;;5075733;28;20175;-77
2022/06/26 15:33:08;;;;;;;3.50;3.20;;;19.30;99.90;;;;;;5075720;28;20171;-76
2022/06/26 15:35:34;;;;;;;3.55;3.28;;;19.20;99.90;;;;;;5075600;28;20274;-76
2022/06/26 15:38:00;;;;;;;4.20;3.53;;;19.30;99.90;;;;;;5075547;28;20168;-76
2022/06/26 15:40:26;;;;;;;3.60;3.30;;;19.30;99.90;;;;;;5075566;28;20175;-76
2022/06/26 15:42:52;;;;;;;4.20;3.90;;;19.30;99.90;;;;;;5074368;28;20164;-76
2022/06/26 15:45:18;;;;;;;4.38;4.07;;;19.20;99.90;;;;;;5075609;28;20183;-76
2022/06/26 16:28:14;;;;;;;6.05;5.45;;;18.50;99.90;;;;;;5090630;28;20301;-75
2022/06/26 16:30:40;;;;;;;5.57;5.28;;;18.60;99.90;;;;;;5090538;28;20242;-75
2022/06/26 16:33:05;;;;;;;5.75;5.00;;;18.40;99.90;;;;;;5089283;28;20335;-75
2022/06/26 16:35:31;;;;;;;5.38;4.75;;;18.50;99.90;;;;;;5089200;28;20174;-76
2022/06/26 16:37:57;;;;;;;5.22;4.50;;;18.40;99.90;;;;;;5089195;28;20172;-76
2022/06/26 16:40:23;;;;;;;5.82;5.35;;;18.60;99.90;;;;;;5090391;28;20191;-75
2022/06/26 16:42:50;;;;;;;4.85;4.45;;;18.60;99.90;;;;;;5090315;28;20252;-76
2022/06/26 16:45:16;;;;;;;4.60;4.20;;;18.80;99.90;;;;;;5088993;28;20167;-76
2022/06/26 16:47:42;;;;;;;5.13;4.68;;;18.90;99.90;;;;;;5090278;28;20247;-76
2022/06/26 16:50:09;;;;;;;5.85;5.05;;;19.00;99.90;;;;;;5090262;28;20181;-76
2022/06/26 16:52:36;;;;;;;4.45;4.15;;;19.10;99.90;;;;;;5088844;28;20634;-76
2022/06/26 16:55:03;;;;;;;4.53;4.13;;;19.10;99.90;;;;;;5090170;28;20174;-77
2022/06/26 16:57:29;;;;;;;4.50;4.20;;;19.20;99.90;;;;;;5089914;28;20195;-77
2022/06/26 16:59:55;;;;;;;4.50;3.97;;;19.20;99.90;;;;;;5090053;28;20202;-76
2022/06/26 17:02:21;;;;;;;5.13;4.30;;;19.30;99.90;;;;;;5089947;28;20298;-76
2022/06/26 17:04:47;;;;;;;4.15;3.85;;;19.20;99.90;;;;;;5090076;28;20178;-76
2022/06/26 17:07:14;;;;;;;5.38;3.88;;;19.10;99.90;;;;;;5090202;28;20250;-76
2022/06/26 17:09:40;;;;;;;3.30;3.10;;;19.00;99.90;;;;;;5089860;28;20160;-76
